createdAt,value
2018-11-25T00:00:41.583Z,38.17
2018-11-25T00:03:10.465Z,39.83
2018-11-25T00:05:39.333Z,39.63
2018-11-25T00:08:08.141Z,42.43
2018-11-25T00:10:36.631Z,40.73
2018-11-25T00:13:05.296Z,40.87
2018-11-25T00:15:33.966Z,38.13
2018-11-25T00:18:02.591Z,39.87
2018-11-25T00:20:31.373Z,37.00
2018-11-25T00:23:00.367Z,37.23
2018-11-25T00:25:29.678Z,37.63
2018-11-25T00:27:58.549Z,35.87
2018-11-25T00:30:27.081Z,36.83
2018-11-25T00:32:56.169Z,36.33
2018-11-25T00:35:24.939Z,35.40
2018-11-25T00:37:53.907Z,33.63
2018-11-25T00:40:22.701Z,35.70
2018-11-25T00:42:51.447Z,34.97
2018-11-25T00:45:21.615Z,34.17
2018-11-25T00:47:50.825Z,35.03
2018-11-25T00:50:19.528Z,33.23
2018-11-25T00:52:48.257Z,33.20
2018-11-25T00:55:18.634Z,35.40
2018-11-25T00:57:47.943Z,34.17
2018-11-25T01:00:18.923Z,33.73
2018-11-25T01:02:48.597Z,33.47
2018-11-25T01:05:17.938Z,35.63
2018-11-25T01:07:47.560Z,34.50
2018-11-25T01:10:17.321Z,34.53
2018-11-25T01:12:46.271Z,37.50
2018-11-25T01:15:19.115Z,34.20
2018-11-25T01:17:47.815Z,33.77
2018-11-25T01:20:21.432Z,34.57
2018-11-25T01:22:50.068Z,35.77
2018-11-25T01:25:20.024Z,35.87
2018-11-25T01:27:48.795Z,35.30
2018-11-25T01:30:18.176Z,34.73
2018-11-25T01:32:46.987Z,36.17
2018-11-25T01:35:15.481Z,35.10
2018-11-25T01:37:44.064Z,33.87
2018-11-25T01:40:13.642Z,35.30
2018-11-25T01:42:44.656Z,34.87
2018-11-25T01:45:15.957Z,35.67
2018-11-25T01:47:44.860Z,34.80
2018-11-25T01:50:15.067Z,33.77
2018-11-25T01:52:43.920Z,34.40
2018-11-25T01:55:15.197Z,32.67
2018-11-25T01:57:45.312Z,35.73
2018-11-25T02:00:22.947Z,34.53
2018-11-25T02:02:51.758Z,33.13
2018-11-25T02:05:20.406Z,32.93
2018-11-25T02:07:49.041Z,33.13
2018-11-25T02:10:18.538Z,33.10
2018-11-25T02:12:47.456Z,35.30
2018-11-25T02:15:17.037Z,34.43
2018-11-25T02:17:45.809Z,33.50
2018-11-25T02:20:21.358Z,32.53
2018-11-25T02:22:50.886Z,35.27
2018-11-25T02:25:19.678Z,34.33
2018-11-25T02:27:48.771Z,33.23
2018-11-25T02:30:18.040Z,34.63
2018-11-25T02:32:47.870Z,33.87
2018-11-25T02:35:17.044Z,34.50
2018-11-25T02:37:45.672Z,35.53
2018-11-25T02:40:15.425Z,34.67
2018-11-25T02:42:44.679Z,34.67
2018-11-25T02:45:18.479Z,35.23
2018-11-25T02:47:47.666Z,36.77
2018-11-25T02:50:32.749Z,36.33
2018-11-25T02:53:03.663Z,35.53
2018-11-25T02:55:32.761Z,36.03
2018-11-25T02:58:01.704Z,35.37
2018-11-25T03:00:33.164Z,36.13
2018-11-25T03:03:01.645Z,36.90
2018-11-25T03:05:30.722Z,34.67
2018-11-25T03:08:00.054Z,36.10
2018-11-25T03:10:29.804Z,35.63
2018-11-25T03:12:59.092Z,34.90
2018-11-25T03:15:28.294Z,37.50
2018-11-25T03:17:57.322Z,35.47
2018-11-25T03:20:26.245Z,36.57
2018-11-25T03:22:55.748Z,35.90
2018-11-25T03:25:24.615Z,36.33
2018-11-25T03:27:54.497Z,36.53
2018-11-25T03:30:23.634Z,36.20
2018-11-25T03:32:54.263Z,36.70
2018-11-25T03:35:23.281Z,35.23
2018-11-25T03:37:51.723Z,36.07
2018-11-25T03:40:21.096Z,34.73
2018-11-25T03:42:50.150Z,34.37
2018-11-25T03:45:22.251Z,34.90
2018-11-25T03:47:51.253Z,34.63
2018-11-25T03:50:21.097Z,34.40
2018-11-25T03:52:50.165Z,34.83
2018-11-25T03:55:19.321Z,35.60
2018-11-25T03:57:48.518Z,34.30
2018-11-25T04:00:22.217Z,32.53
2018-11-25T04:02:53.110Z,34.70
2018-11-25T04:05:21.559Z,35.37
2018-11-25T04:07:50.644Z,36.07
2018-11-25T04:10:20.338Z,35.50
2018-11-25T04:12:49.216Z,34.40
2018-11-25T04:15:19.388Z,34.03
2018-11-25T04:17:49.269Z,34.97
2018-11-25T04:20:20.402Z,34.67
2018-11-25T04:22:50.461Z,34.50
2018-11-25T04:25:19.503Z,34.77
2018-11-25T04:27:48.480Z,36.27
2018-11-25T04:30:18.820Z,33.87
2018-11-25T04:32:49.256Z,34.50
2018-11-25T04:35:18.626Z,33.87
2018-11-25T04:37:47.622Z,34.53
2018-11-25T04:40:18.887Z,33.73
2018-11-25T04:42:48.206Z,34.80
2018-11-25T04:45:17.944Z,36.13
2018-11-25T04:47:47.703Z,34.53
2018-11-25T04:50:20.498Z,37.30
2018-11-25T04:52:50.985Z,35.10
2018-11-25T04:55:20.092Z,34.63
2018-11-25T04:57:52.437Z,36.10
2018-11-25T05:00:22.396Z,32.17
2018-11-25T05:02:52.489Z,33.80
2018-11-25T05:05:22.942Z,35.33
2018-11-25T05:07:51.934Z,32.57
2018-11-25T05:10:21.144Z,32.13
2018-11-25T05:12:50.135Z,34.30
2018-11-25T05:15:22.121Z,34.77
2018-11-25T05:17:51.658Z,34.57
2018-11-25T05:20:21.623Z,32.37
2018-11-25T05:22:50.814Z,34.90
2018-11-25T05:25:20.615Z,33.37
2018-11-25T05:27:50.025Z,32.87
2018-11-25T05:30:20.933Z,34.10
2018-11-25T05:32:50.066Z,34.47
2018-11-25T05:35:20.449Z,34.70
2018-11-25T05:37:50.612Z,34.50
2018-11-25T05:40:19.920Z,35.73
2018-11-25T05:42:50.034Z,32.37
2018-11-25T05:45:20.459Z,35.10
2018-11-25T05:47:49.852Z,34.97
2018-11-25T05:50:20.821Z,35.57
2018-11-25T05:52:50.148Z,33.97
2018-11-25T05:55:19.473Z,35.17
2018-11-25T05:57:48.690Z,35.20
2018-11-25T06:00:37.561Z,34.57
2018-11-25T06:03:07.064Z,34.17
2018-11-25T06:05:36.891Z,31.90
2018-11-25T06:08:06.174Z,34.23
2018-11-25T06:10:35.689Z,34.50
2018-11-25T06:13:05.442Z,34.40
2018-11-25T06:15:34.987Z,32.77
2018-11-25T06:18:04.222Z,33.00
2018-11-25T06:20:48.898Z,34.10
2018-11-25T06:23:17.908Z,31.73
2018-11-25T06:25:47.770Z,33.10
2018-11-25T06:28:17.115Z,35.30
2018-11-25T06:30:46.319Z,34.37
2018-11-25T06:33:15.625Z,34.40
2018-11-25T06:35:44.869Z,33.07
2018-11-25T06:38:14.480Z,33.80
2018-11-25T06:40:43.838Z,34.67
2018-11-25T06:43:14.694Z,34.23
2018-11-25T06:45:44.497Z,35.83
2018-11-25T06:48:16.297Z,34.80
2018-11-25T06:50:48.056Z,34.97
2018-11-25T06:53:17.443Z,35.03
2018-11-25T06:55:46.946Z,35.27
2018-11-25T06:58:16.431Z,35.13
2018-11-25T07:00:46.678Z,37.17
2018-11-25T07:03:16.588Z,34.30
2018-11-25T07:05:44.996Z,35.70
2018-11-25T07:08:14.040Z,35.47
2018-11-25T07:10:42.466Z,34.10
2018-11-25T07:13:10.855Z,36.47
2018-11-25T07:15:39.216Z,36.10
2018-11-25T07:18:07.593Z,38.73
2018-11-25T07:20:35.968Z,37.60
2018-11-25T07:23:10.618Z,38.07
2018-11-25T07:25:47.340Z,37.37
2018-11-25T07:28:20.443Z,38.20
2018-11-25T07:30:53.636Z,38.87
2018-11-25T07:33:22.840Z,37.90
2018-11-25T07:35:51.940Z,39.47
2018-11-25T07:38:21.092Z,39.43
2018-11-25T07:40:50.324Z,42.50
2018-11-25T07:43:19.316Z,39.30
2018-11-25T07:45:48.351Z,36.73
2018-11-25T07:48:17.438Z,37.63
2018-11-25T07:50:47.227Z,37.03
2018-11-25T07:53:16.658Z,38.77
2018-11-25T07:55:47.007Z,38.33
2018-11-25T07:58:16.324Z,39.33
2018-11-25T08:00:45.492Z,40.67
2018-11-25T08:03:19.077Z,38.03
2018-11-25T08:05:48.792Z,38.60
2018-11-25T08:08:18.452Z,39.10
2018-11-25T08:14:32.876Z,38.17
2018-11-25T08:17:03.197Z,38.70
2018-11-25T08:19:38.030Z,38.57
2018-11-25T08:22:18.505Z,41.83
2018-11-25T08:24:58.286Z,41.17
2018-11-25T08:27:27.888Z,40.27
2018-11-25T08:30:05.975Z,42.73
2018-11-25T08:32:39.015Z,40.00
2018-11-25T08:35:08.366Z,37.30
2018-11-25T08:37:36.851Z,37.77
2018-11-25T08:40:11.260Z,40.33
2018-11-25T08:42:40.296Z,37.83
2018-11-25T08:45:10.596Z,39.43
2018-11-25T08:47:39.672Z,39.47
2018-11-25T08:50:16.280Z,38.40
2018-11-25T08:52:46.325Z,40.50
2018-11-25T08:55:23.825Z,38.27
2018-11-25T08:57:53.067Z,39.40
2018-11-25T09:00:33.505Z,37.63
2018-11-25T09:03:10.595Z,37.70
2018-11-25T09:05:40.012Z,38.90
2018-11-25T09:08:12.036Z,40.13
2018-11-25T09:10:41.047Z,37.33
2018-11-25T09:13:09.452Z,38.23
2018-11-25T09:15:39.341Z,36.20
2018-11-25T09:18:07.971Z,38.33
2018-11-25T09:20:36.385Z,39.50
2018-11-25T09:23:06.654Z,40.10
2018-11-25T09:25:35.354Z,40.23
2018-11-25T09:28:04.903Z,36.90
2018-11-25T09:30:34.350Z,38.53
2018-11-25T09:33:03.271Z,40.10
2018-11-25T09:35:32.104Z,39.37
2018-11-25T09:38:01.479Z,41.13
2018-11-25T09:40:30.329Z,37.80
2018-11-25T09:42:59.070Z,38.23
2018-11-25T09:45:27.772Z,39.90
2018-11-25T09:47:57.899Z,38.13
2018-11-25T09:50:28.030Z,38.07
2018-11-25T09:52:56.793Z,38.43
2018-11-25T09:55:27.390Z,37.00
2018-11-25T09:58:00.404Z,38.77
2018-11-25T10:00:33.299Z,37.77
2018-11-25T10:03:03.014Z,37.17
2018-11-25T10:05:31.840Z,39.50
2018-11-25T10:08:00.834Z,38.77
2018-11-25T10:10:29.384Z,38.47
2018-11-25T10:12:57.855Z,37.50
2018-11-25T10:15:27.382Z,39.73
2018-11-25T10:17:59.697Z,37.77
2018-11-25T10:20:25.812Z,38.60
2018-11-25T10:22:54.295Z,39.83
2018-11-25T10:25:22.669Z,37.33
2018-11-25T10:27:51.280Z,38.63
2018-11-25T10:30:20.764Z,37.87
2018-11-25T10:32:50.443Z,36.27
2018-11-25T10:35:19.740Z,37.03
2018-11-25T10:37:48.445Z,37.40
2018-11-25T10:40:19.729Z,37.90
2018-11-25T10:42:48.207Z,39.33
2018-11-25T10:45:18.865Z,38.47
2018-11-25T10:47:47.686Z,39.17
2018-11-25T10:50:17.803Z,39.30
2018-11-25T10:52:46.455Z,41.20
2018-11-25T10:55:16.862Z,41.07
2018-11-25T10:57:47.432Z,39.37
2018-11-25T11:00:25.651Z,40.40
2018-11-25T11:03:56.599Z,40.97
2018-11-25T11:06:31.985Z,40.50
2018-11-25T11:09:00.536Z,40.43
2018-11-25T11:11:28.994Z,39.10
2018-11-25T11:13:57.390Z,41.87
2018-11-25T11:16:26.669Z,40.87
2018-11-25T11:18:55.149Z,41.90
2018-11-25T11:21:23.780Z,38.00
2018-11-25T11:23:52.441Z,37.70
2018-11-25T11:26:23.680Z,40.37
2018-11-25T11:28:52.197Z,39.00
2018-11-25T11:31:20.753Z,44.77
2018-11-25T11:33:49.311Z,42.37
2018-11-25T11:36:17.769Z,44.83
2018-11-25T11:38:46.253Z,40.80
2018-11-25T11:41:15.133Z,38.70
2018-11-25T11:43:43.666Z,41.57
2018-11-25T11:46:12.083Z,41.73
2018-11-25T11:48:40.589Z,41.00
2018-11-25T11:51:10.037Z,44.27
2018-11-25T11:53:38.495Z,41.77
2018-11-25T11:56:06.901Z,40.67
2018-11-25T11:58:35.504Z,42.80
2018-11-25T12:01:03.965Z,41.67
2018-11-25T12:03:32.498Z,44.63
2018-11-25T12:06:00.941Z,45.70
2018-11-25T12:08:29.347Z,43.77
2018-11-25T12:10:58.126Z,42.67
2018-11-25T12:13:26.689Z,43.07
2018-11-25T12:15:55.143Z,42.37
2018-11-25T12:18:23.797Z,41.70
2018-11-25T12:20:52.319Z,42.77
2018-11-25T12:23:20.708Z,38.23
2018-11-25T12:25:49.250Z,39.87
2018-11-25T12:28:17.720Z,39.17
2018-11-25T12:30:46.562Z,43.03
2018-11-25T12:33:16.863Z,41.90
2018-11-25T12:35:45.604Z,40.47
2018-11-25T12:38:14.148Z,39.93
2018-11-25T12:40:42.632Z,41.27
2018-11-25T12:43:11.557Z,41.97
2018-11-25T12:45:40.700Z,40.07
2018-11-25T12:48:09.252Z,38.97
2018-11-25T12:50:37.697Z,37.87
2018-11-25T12:53:06.268Z,37.93
2018-11-25T12:55:34.702Z,37.47
2018-11-25T12:58:03.180Z,36.60
2018-11-25T13:00:35.675Z,36.33
2018-11-25T13:03:04.526Z,37.87
2018-11-25T13:05:33.251Z,39.23
2018-11-25T13:08:01.912Z,39.03
2018-11-25T13:10:31.168Z,38.87
2018-11-25T13:13:00.806Z,42.60
2018-11-25T13:15:30.359Z,39.00
2018-11-25T13:17:59.013Z,42.63
2018-11-25T13:20:28.396Z,41.43
2018-11-25T13:22:58.885Z,42.33
2018-11-25T13:25:27.533Z,43.67
2018-11-25T13:27:55.983Z,40.83
2018-11-25T13:30:25.872Z,39.50
2018-11-25T13:32:55.383Z,39.13
2018-11-25T13:35:24.349Z,39.33
2018-11-25T13:37:53.132Z,39.50
2018-11-25T13:40:22.116Z,41.20
2018-11-25T13:42:51.206Z,40.53
2018-11-25T13:45:19.905Z,40.83
2018-11-25T13:47:48.542Z,40.67
2018-11-25T13:50:17.293Z,40.20
2018-11-25T13:52:46.520Z,40.63
2018-11-25T13:55:20.178Z,39.43
2018-11-25T13:57:48.803Z,41.20
2018-11-25T14:00:51.640Z,42.00
2018-11-25T14:03:25.030Z,39.83
2018-11-25T14:05:53.694Z,39.53
2018-11-25T14:08:22.377Z,40.93
2018-11-25T14:10:57.591Z,40.53
2018-11-25T14:13:26.249Z,42.93
2018-11-25T14:15:54.661Z,43.90
2018-11-25T14:18:23.634Z,44.07
2018-11-25T14:20:52.066Z,44.23
2018-11-25T14:23:21.664Z,42.77
2018-11-25T14:25:50.844Z,45.53
2018-11-25T14:28:19.396Z,46.57
2018-11-25T14:30:48.911Z,48.20
2018-11-25T14:33:17.790Z,47.10
2018-11-25T14:35:46.353Z,46.27
2018-11-25T14:38:14.763Z,49.53
2018-11-25T14:40:43.229Z,51.03
2018-11-25T14:43:11.651Z,48.27
2018-11-25T14:45:40.399Z,48.90
2018-11-25T14:48:09.317Z,46.60
2018-11-25T14:50:38.477Z,47.83
2018-11-25T14:53:07.503Z,46.33
2018-11-25T14:55:36.469Z,47.83
2018-11-25T14:58:05.804Z,49.10
2018-11-25T15:00:35.792Z,48.40
2018-11-25T15:03:05.772Z,49.00
2018-11-25T15:05:49.490Z,47.47
2018-11-25T15:08:22.619Z,48.33
2018-11-25T15:11:06.015Z,47.37
2018-11-25T15:13:34.442Z,49.50
2018-11-25T15:16:03.566Z,50.17
2018-11-25T15:18:32.059Z,49.37
2018-11-25T15:21:00.451Z,46.70
2018-11-25T15:23:29.556Z,48.70
2018-11-25T15:25:58.974Z,46.97
2018-11-25T15:28:27.515Z,47.17
2018-11-25T15:30:57.090Z,49.37
2018-11-25T15:33:25.487Z,47.33
2018-11-25T15:35:53.846Z,47.17
2018-11-25T15:38:22.389Z,47.27
2018-11-25T15:40:51.850Z,46.43
2018-11-25T15:43:20.251Z,43.83
2018-11-25T15:45:48.651Z,47.90
2018-11-25T15:48:23.781Z,46.20
2018-11-25T15:50:52.292Z,46.30
2018-11-25T15:53:28.055Z,46.10
2018-11-25T15:55:59.025Z,47.17
2018-11-25T15:58:27.453Z,48.27
2018-11-25T16:00:55.905Z,47.83
2018-11-25T16:03:24.559Z,47.73
2018-11-25T16:06:19.056Z,48.47
2018-11-25T16:08:47.545Z,44.60
2018-11-25T16:11:15.952Z,48.47
2018-11-25T16:13:44.682Z,50.17
2018-11-25T16:16:13.041Z,47.33
2018-11-25T16:18:41.974Z,46.60
2018-11-25T16:21:10.943Z,49.20
2018-11-25T16:23:40.959Z,46.13
2018-11-25T16:26:18.921Z,47.77
2018-11-25T16:28:48.952Z,48.43
2018-11-25T16:31:17.431Z,48.10
2018-11-25T16:33:45.795Z,47.87
2018-11-25T16:36:14.704Z,50.60
2018-11-25T16:38:43.854Z,49.17
2018-11-25T16:41:12.940Z,48.97
2018-11-25T16:43:41.374Z,53.33
2018-11-25T16:46:10.387Z,49.97
2018-11-25T16:48:38.804Z,48.53
2018-11-25T16:51:08.151Z,52.07
2018-11-25T16:53:37.034Z,53.40
2018-11-25T16:56:06.007Z,51.67
2018-11-25T16:58:34.488Z,50.13
2018-11-25T17:01:09.776Z,51.70
2018-11-25T17:03:32.020Z,53.40
2018-11-25T17:06:00.412Z,51.27
2018-11-25T17:08:37.117Z,50.43
2018-11-25T17:11:05.790Z,52.03
2018-11-25T17:13:35.111Z,53.17
2018-11-25T17:16:03.500Z,52.77
2018-11-25T17:18:32.051Z,52.53
2018-11-25T17:21:00.499Z,55.13
2018-11-25T17:23:29.715Z,58.07
2018-11-25T17:25:58.542Z,57.60
2018-11-25T17:28:26.952Z,56.00
2018-11-25T17:30:55.334Z,59.73
2018-11-25T17:33:23.737Z,58.63
2018-11-25T17:35:52.112Z,59.40
2018-11-25T17:38:20.722Z,57.63
2018-11-25T17:40:49.785Z,60.10
2018-11-25T17:43:20.792Z,56.33
2018-11-25T17:45:49.219Z,59.97
2018-11-25T17:48:17.642Z,57.70
2018-11-25T17:50:46.216Z,58.17
2018-11-25T17:53:20.653Z,59.73
2018-11-25T17:55:43.441Z,60.10
2018-11-25T17:58:17.186Z,60.70
2018-11-25T18:00:53.097Z,61.00
2018-11-25T18:03:23.057Z,56.00
2018-11-25T18:05:51.482Z,59.13
2018-11-25T18:08:19.962Z,55.60
2018-11-25T18:10:48.366Z,55.87
2018-11-25T18:13:17.792Z,55.10
2018-11-25T18:15:46.450Z,53.97
2018-11-25T18:18:18.094Z,57.23
2018-11-25T18:20:56.042Z,56.73
2018-11-25T18:23:24.451Z,57.73
2018-11-25T18:25:55.129Z,49.57
2018-11-25T18:28:23.793Z,56.70
2018-11-25T18:30:52.572Z,51.00
2018-11-25T18:33:20.985Z,48.43
2018-11-25T18:35:49.793Z,49.80
2018-11-25T18:38:18.835Z,48.93
2018-11-25T18:40:47.781Z,52.33
2018-11-25T18:43:17.531Z,49.70
2018-11-25T18:45:46.059Z,50.53
2018-11-25T18:48:16.005Z,47.00
2018-11-25T18:50:44.500Z,45.77
2018-11-25T18:53:13.381Z,47.10
2018-11-25T18:55:40.699Z,46.20
2018-11-25T18:58:09.141Z,45.53
2018-11-25T19:00:41.043Z,45.33
2018-11-25T19:03:09.673Z,49.07
2018-11-25T19:05:38.361Z,49.87
2018-11-25T19:08:08.230Z,47.90
2018-11-25T19:10:37.720Z,48.17
2018-11-25T19:13:06.273Z,49.37
2018-11-25T19:15:35.126Z,50.60
2018-11-25T19:18:03.722Z,49.03
2018-11-25T19:20:32.309Z,51.77
2018-11-25T19:23:00.970Z,49.50
2018-11-25T19:25:30.098Z,52.53
2018-11-25T19:27:58.629Z,53.10
2018-11-25T19:30:27.297Z,53.87
2018-11-25T19:32:55.737Z,49.67
2018-11-25T19:35:24.324Z,49.13
2018-11-25T19:37:53.024Z,46.87
2018-11-25T19:40:25.078Z,46.60
2018-11-25T19:42:54.638Z,46.30
2018-11-25T19:45:24.258Z,45.53
2018-11-25T19:47:52.799Z,46.97
2018-11-25T19:50:27.536Z,43.10
2018-11-25T19:52:56.123Z,45.57
2018-11-25T19:55:32.681Z,45.00
2018-11-25T19:58:01.309Z,47.33
2018-11-25T20:00:30.033Z,44.67
2018-11-25T20:02:59.747Z,44.90
2018-11-25T20:05:28.160Z,44.53
2018-11-25T20:07:56.648Z,43.77
2018-11-25T20:10:25.942Z,44.50
2018-11-25T20:12:56.901Z,44.03
2018-11-25T20:15:25.487Z,43.00
2018-11-25T20:17:54.794Z,44.20
2018-11-25T20:20:25.710Z,43.73
2018-11-25T20:22:54.703Z,44.20
2018-11-25T20:25:23.585Z,44.03
2018-11-25T20:27:54.037Z,46.37
2018-11-25T20:30:25.788Z,44.50
2018-11-25T20:32:59.536Z,44.20
2018-11-25T20:35:28.021Z,47.40
2018-11-25T20:39:03.674Z,47.30
2018-11-25T20:41:32.409Z,45.87
2018-11-25T20:44:01.003Z,46.47
2018-11-25T20:46:34.674Z,46.10
2018-11-25T20:49:03.258Z,45.67
2018-11-25T20:53:40.784Z,48.73
2018-11-25T20:56:09.307Z,45.77
2018-11-25T20:58:37.749Z,45.47
2018-11-25T21:01:06.395Z,45.43
2018-11-25T21:03:37.752Z,46.30
2018-11-25T21:06:06.554Z,44.83
2018-11-25T21:08:34.980Z,46.37
2018-11-25T21:11:03.398Z,44.33
2018-11-25T21:13:32.679Z,45.20
2018-11-25T21:16:01.302Z,46.43
2018-11-25T21:18:29.908Z,42.30
2018-11-25T21:20:58.393Z,43.47
2018-11-25T21:23:26.977Z,43.67
2018-11-25T21:25:55.457Z,42.20
2018-11-25T21:28:24.007Z,43.73
2018-11-25T21:30:52.464Z,43.80
2018-11-25T21:33:20.867Z,43.10
2018-11-25T21:35:49.280Z,42.90
2018-11-25T21:38:17.694Z,42.10
2018-11-25T21:40:46.089Z,40.43
2018-11-25T21:43:14.486Z,41.10
2018-11-25T21:45:43.038Z,44.17
2018-11-25T21:48:11.577Z,43.27
2018-11-25T21:50:40.374Z,44.97
2018-11-25T21:53:08.900Z,44.73
2018-11-25T21:55:37.419Z,45.00
2018-11-25T21:58:06.995Z,45.47
2018-11-25T22:00:35.687Z,46.67
2018-11-25T22:03:04.474Z,45.33
2018-11-25T22:05:33.032Z,47.70
2018-11-25T22:08:01.590Z,44.83
2018-11-25T22:10:30.153Z,43.70
2018-11-25T22:12:58.636Z,44.00
2018-11-25T22:15:27.148Z,47.20
2018-11-25T22:17:56.113Z,46.57
2018-11-25T22:20:25.519Z,48.43
2018-11-25T22:22:54.434Z,46.90
2018-11-25T22:25:24.001Z,46.33
2018-11-25T22:27:52.827Z,46.60
2018-11-25T22:30:23.009Z,47.30
2018-11-25T22:32:51.881Z,47.17
2018-11-25T22:35:21.863Z,44.07
2018-11-25T22:37:51.070Z,45.77
2018-11-25T22:40:21.206Z,46.17
2018-11-25T22:42:50.606Z,45.03
2018-11-25T22:45:21.997Z,46.03
2018-11-25T22:47:50.903Z,48.13
2018-11-25T22:50:20.668Z,48.00
2018-11-25T22:52:52.332Z,47.83
2018-11-25T22:55:27.075Z,46.83
2018-11-25T22:57:55.539Z,46.20
2018-11-25T23:00:27.852Z,48.93
2018-11-25T23:02:56.320Z,44.17
2018-11-25T23:05:35.956Z,47.93
2018-11-25T23:08:05.476Z,50.50
2018-11-25T23:10:34.331Z,45.20
2018-11-25T23:13:02.778Z,47.97
2018-11-25T23:15:31.358Z,44.40
2018-11-25T23:18:00.510Z,49.17
2018-11-25T23:20:29.480Z,48.17
2018-11-25T23:22:57.871Z,46.17
2018-11-25T23:25:27.172Z,44.00
2018-11-25T23:27:56.210Z,42.60
2018-11-25T23:30:26.460Z,47.37
2018-11-25T23:32:55.685Z,46.60
2018-11-25T23:35:27.685Z,45.13
2018-11-25T23:37:56.199Z,47.43
2018-11-25T23:40:25.706Z,46.40
2018-11-25T23:42:56.093Z,47.90
2018-11-25T23:45:24.991Z,47.20
2018-11-25T23:47:53.485Z,46.90
2018-11-25T23:50:22.594Z,48.10
2018-11-25T23:52:52.676Z,47.37
2018-11-25T23:55:22.086Z,46.37
2018-11-25T23:57:51.658Z,46.13
